createdAt,value
2017-11-03T00:00:36.755Z,0
2017-11-03T00:01:38.502Z,0
2017-11-03T00:02:40.266Z,0
2017-11-03T00:03:41.985Z,0
2017-11-03T00:04:43.703Z,0
2017-11-03T00:05:45.429Z,0
2017-11-03T00:06:47.155Z,0
2017-11-03T00:07:49.290Z,0
2017-11-03T00:08:50.994Z,0
2017-11-03T00:09:52.717Z,0
2017-11-03T00:10:54.410Z,0
2017-11-03T00:11:56.161Z,0
2017-11-03T00:12:58.001Z,0
2017-11-03T00:13:59.756Z,0
2017-11-03T00:15:01.508Z,0
2017-11-03T00:16:03.263Z,0
2017-11-03T00:17:05.000Z,0
2017-11-03T00:18:06.729Z,0
2017-11-03T00:19:08.471Z,0
2017-11-03T00:20:10.192Z,0
2017-11-03T00:21:11.928Z,0
2017-11-03T00:22:13.688Z,0
2017-11-03T00:23:15.438Z,0
2017-11-03T00:24:17.195Z,0
2017-11-03T00:25:18.906Z,0
2017-11-03T00:26:20.621Z,0
2017-11-03T00:27:22.358Z,0
2017-11-03T00:28:24.079Z,0
2017-11-03T00:29:25.811Z,0
2017-11-03T00:30:27.550Z,0
2017-11-03T00:31:29.264Z,0
2017-11-03T00:32:30.976Z,0
2017-11-03T00:33:32.727Z,0
2017-11-03T00:34:34.440Z,0
2017-11-03T00:35:36.162Z,0
2017-11-03T00:36:37.940Z,0
2017-11-03T00:37:39.636Z,0
2017-11-03T00:38:41.353Z,0
2017-11-03T00:39:43.054Z,0
2017-11-03T00:40:44.798Z,0
2017-11-03T00:41:46.527Z,0
2017-11-03T00:42:48.256Z,0
2017-11-03T00:43:49.952Z,0
2017-11-03T00:44:51.682Z,0
2017-11-03T00:45:53.461Z,0
2017-11-03T00:46:55.179Z,0
2017-11-03T00:47:56.908Z,0
2017-11-03T00:48:58.680Z,0
2017-11-03T00:50:00.400Z,0
2017-11-03T00:51:02.147Z,0
2017-11-03T00:52:03.860Z,0
2017-11-03T00:53:05.542Z,0
2017-11-03T00:54:07.400Z,0
2017-11-03T00:55:09.109Z,0
2017-11-03T00:56:10.823Z,0
2017-11-03T00:57:12.556Z,0
2017-11-03T00:58:14.279Z,0
2017-11-03T00:59:16.027Z,0
2017-11-03T01:00:17.766Z,0
2017-11-03T01:01:19.457Z,0
2017-11-03T01:02:21.191Z,0
2017-11-03T01:03:23.023Z,0
2017-11-03T01:04:24.735Z,0
2017-11-03T01:05:26.454Z,0
2017-11-03T01:06:28.165Z,0
2017-11-03T01:07:29.903Z,0
2017-11-03T01:08:31.600Z,0
2017-11-03T01:09:33.348Z,0
2017-11-03T01:10:35.072Z,0
2017-11-03T01:11:36.773Z,0
2017-11-03T01:12:38.495Z,0
2017-11-03T01:13:40.230Z,0
2017-11-03T01:14:41.972Z,0
2017-11-03T01:15:43.691Z,0
2017-11-03T01:16:45.425Z,0
2017-11-03T01:17:47.153Z,0
2017-11-03T01:18:48.855Z,0
2017-11-03T01:19:50.625Z,0
2017-11-03T01:20:52.335Z,0
2017-11-03T01:21:54.047Z,0
2017-11-03T01:22:55.758Z,0
2017-11-03T01:23:57.469Z,0
2017-11-03T01:24:59.259Z,0
2017-11-03T01:26:01.020Z,0
2017-11-03T01:27:02.734Z,0
2017-11-03T01:28:04.435Z,0
2017-11-03T01:29:06.174Z,0
2017-11-03T01:30:07.902Z,0
2017-11-03T01:31:09.623Z,0
2017-11-03T01:32:11.331Z,0
2017-11-03T01:33:13.026Z,0
2017-11-03T01:34:14.724Z,0
2017-11-03T01:35:16.426Z,0
2017-11-03T01:36:18.171Z,0
2017-11-03T01:37:19.877Z,0
2017-11-03T01:38:21.609Z,0
2017-11-03T01:39:23.321Z,0
2017-11-03T01:40:25.046Z,0
2017-11-03T01:41:26.759Z,0
2017-11-03T01:42:28.484Z,0
2017-11-03T01:43:30.220Z,0
2017-11-03T01:44:31.958Z,0
2017-11-03T01:45:33.726Z,0
2017-11-03T01:46:35.454Z,0
2017-11-03T01:47:37.238Z,0
2017-11-03T01:48:38.972Z,0
2017-11-03T01:49:40.695Z,0
2017-11-03T01:50:42.406Z,0
2017-11-03T01:51:44.125Z,0
2017-11-03T01:52:45.839Z,0
2017-11-03T01:53:47.542Z,0
2017-11-03T01:54:49.278Z,0
2017-11-03T01:55:50.988Z,0
2017-11-03T01:56:52.710Z,0
2017-11-03T01:57:54.435Z,0
2017-11-03T01:58:56.136Z,0
2017-11-03T01:59:57.860Z,0
2017-11-03T02:00:59.648Z,0
2017-11-03T02:02:01.356Z,0
2017-11-03T02:03:03.079Z,0
2017-11-03T02:04:04.790Z,0
2017-11-03T02:05:06.508Z,0
2017-11-03T02:06:08.213Z,0
2017-11-03T02:07:09.979Z,0
2017-11-03T02:08:11.702Z,0
2017-11-03T02:09:13.467Z,0
2017-11-03T02:10:15.192Z,0
2017-11-03T02:11:16.907Z,0
2017-11-03T02:12:18.632Z,0
2017-11-03T02:13:20.355Z,0
2017-11-03T02:14:22.061Z,0
2017-11-03T02:15:24.345Z,0
2017-11-03T02:16:26.062Z,0
2017-11-03T02:17:27.782Z,0
2017-11-03T02:18:29.506Z,0
2017-11-03T02:19:31.213Z,0
2017-11-03T02:20:32.970Z,0
2017-11-03T02:21:34.689Z,0
2017-11-03T02:22:36.402Z,0
2017-11-03T02:23:38.137Z,0
2017-11-03T02:24:39.855Z,0
2017-11-03T02:25:41.577Z,0
2017-11-03T02:26:43.285Z,0
2017-11-03T02:27:44.985Z,0
2017-11-03T02:28:46.719Z,0
2017-11-03T02:29:48.431Z,0
2017-11-03T02:30:50.147Z,0
2017-11-03T02:31:51.877Z,0
2017-11-03T02:32:53.655Z,0
2017-11-03T02:33:55.360Z,0
2017-11-03T02:34:57.104Z,0
2017-11-03T02:35:58.852Z,0
2017-11-03T02:37:00.614Z,0
2017-11-03T02:38:02.355Z,0
2017-11-03T02:39:04.061Z,0
2017-11-03T02:40:05.757Z,0
2017-11-03T02:41:07.538Z,0
2017-11-03T02:42:09.255Z,0
2017-11-03T02:43:10.968Z,0
2017-11-03T02:44:12.672Z,0
2017-11-03T02:45:14.377Z,0
2017-11-03T02:46:16.073Z,0
2017-11-03T02:47:17.821Z,0
2017-11-03T02:48:19.534Z,0
2017-11-03T02:49:21.287Z,0
2017-11-03T02:50:23.024Z,0
2017-11-03T02:51:24.716Z,0
2017-11-03T02:52:26.421Z,0
2017-11-03T02:53:28.173Z,0
2017-11-03T02:54:29.894Z,0
2017-11-03T02:55:31.593Z,0
2017-11-03T02:56:33.285Z,0
2017-11-03T02:57:35.046Z,0
2017-11-03T02:58:36.759Z,0
2017-11-03T02:59:38.483Z,0
2017-11-03T03:00:40.206Z,0
2017-11-03T03:01:41.939Z,0
2017-11-03T03:02:43.639Z,0
2017-11-03T03:03:45.332Z,0
2017-11-03T03:04:47.045Z,0
2017-11-03T03:05:48.780Z,0
2017-11-03T03:06:50.485Z,0
2017-11-03T03:07:52.193Z,0
2017-11-03T03:08:53.960Z,0
2017-11-03T03:09:55.664Z,0
2017-11-03T03:10:57.390Z,0
2017-11-03T03:11:59.157Z,0
2017-11-03T03:13:00.904Z,0
2017-11-03T03:14:02.632Z,0
2017-11-03T03:15:04.361Z,0
2017-11-03T03:16:06.070Z,0
2017-11-03T03:17:07.777Z,0
2017-11-03T03:18:09.491Z,0
2017-11-03T03:19:11.195Z,0
2017-11-03T03:20:12.896Z,0
2017-11-03T03:21:14.646Z,0
2017-11-03T03:22:16.357Z,0
2017-11-03T03:23:18.062Z,0
2017-11-03T03:24:19.792Z,0
2017-11-03T03:25:21.507Z,0
2017-11-03T03:26:23.219Z,0
2017-11-03T03:27:24.977Z,0
2017-11-03T03:28:26.674Z,0
2017-11-03T03:29:28.393Z,0
2017-11-03T03:30:30.105Z,0
2017-11-03T03:31:31.832Z,0
2017-11-03T03:32:33.557Z,0
2017-11-03T03:33:35.269Z,0
2017-11-03T03:34:36.973Z,0
2017-11-03T03:35:38.703Z,0
2017-11-03T03:36:40.398Z,0
2017-11-03T03:37:42.146Z,0
2017-11-03T03:38:43.874Z,0
2017-11-03T03:39:45.595Z,0
2017-11-03T03:40:47.301Z,0
2017-11-03T03:41:49.002Z,0
2017-11-03T03:42:50.729Z,0
2017-11-03T03:43:52.441Z,0
2017-11-03T03:44:54.157Z,0
2017-11-03T03:45:55.910Z,0
2017-11-03T03:46:57.657Z,0
2017-11-03T03:47:59.396Z,0
2017-11-03T03:49:01.201Z,0
2017-11-03T03:50:02.914Z,0
2017-11-03T03:51:04.633Z,0
2017-11-03T03:52:06.373Z,0
2017-11-03T03:53:08.060Z,0
2017-11-03T03:54:09.765Z,0
2017-11-03T03:55:11.490Z,0
2017-11-03T03:56:13.182Z,0
2017-11-03T03:57:14.910Z,0
2017-11-03T03:58:16.606Z,0
2017-11-03T03:59:18.353Z,0
2017-11-03T04:00:20.075Z,0
2017-11-03T04:01:21.824Z,0
2017-11-03T04:02:23.544Z,0
2017-11-03T04:03:25.282Z,0
2017-11-03T04:04:26.980Z,0
2017-11-03T04:05:28.708Z,0
2017-11-03T04:06:30.386Z,0
2017-11-03T04:07:32.099Z,0
2017-11-03T04:08:33.834Z,0
2017-11-03T04:09:35.554Z,0
2017-11-03T04:10:37.270Z,0
2017-11-03T04:11:38.986Z,0
2017-11-03T04:12:40.735Z,0
2017-11-03T04:13:42.483Z,0
2017-11-03T04:14:44.206Z,0
2017-11-03T04:15:45.920Z,0
2017-11-03T04:16:47.622Z,0
2017-11-03T04:17:49.315Z,0
2017-11-03T04:18:51.032Z,0
2017-11-03T04:19:52.805Z,0
2017-11-03T04:20:54.521Z,0
2017-11-03T04:21:56.222Z,0
2017-11-03T04:22:57.933Z,0
2017-11-03T04:23:59.658Z,0
2017-11-03T04:25:01.476Z,0
2017-11-03T04:26:03.194Z,0
2017-11-03T04:27:04.945Z,0
2017-11-03T04:28:06.642Z,0
2017-11-03T04:29:08.343Z,0
2017-11-03T04:30:10.040Z,0
2017-11-03T04:31:11.747Z,0
2017-11-03T04:32:13.479Z,0
2017-11-03T04:33:15.176Z,0
2017-11-03T04:34:16.878Z,0
2017-11-03T04:35:18.579Z,0
2017-11-03T04:36:20.299Z,0
2017-11-03T04:37:22.008Z,0
2017-11-03T04:38:23.730Z,0
2017-11-03T04:39:25.426Z,0
2017-11-03T04:40:27.141Z,0
2017-11-03T04:41:28.852Z,0
2017-11-03T04:42:30.558Z,0
2017-11-03T04:43:32.287Z,0
2017-11-03T04:44:34.001Z,0
2017-11-03T04:45:35.718Z,0
2017-11-03T04:46:37.451Z,0
2017-11-03T04:47:39.160Z,0
2017-11-03T04:48:40.934Z,0
2017-11-03T04:49:42.658Z,0
2017-11-03T04:50:44.384Z,0
2017-11-03T04:51:46.104Z,0
2017-11-03T04:52:47.822Z,0
2017-11-03T04:53:49.543Z,0
2017-11-03T04:54:51.300Z,0
2017-11-03T04:55:53.048Z,0
2017-11-03T04:56:54.798Z,0
2017-11-03T04:57:56.533Z,0
2017-11-03T04:58:58.244Z,0
2017-11-03T04:59:59.963Z,0
2017-11-03T05:01:01.781Z,0
2017-11-03T05:02:03.534Z,0
2017-11-03T05:03:05.268Z,0
2017-11-03T05:04:07.000Z,0
2017-11-03T05:05:08.705Z,0
2017-11-03T05:06:10.438Z,0
2017-11-03T05:07:12.177Z,0
2017-11-03T05:08:13.904Z,0
2017-11-03T05:09:15.614Z,0
2017-11-03T05:10:17.351Z,0
2017-11-03T05:11:19.054Z,0
2017-11-03T05:12:20.843Z,0
2017-11-03T05:13:22.567Z,0
2017-11-03T05:14:24.308Z,0
2017-11-03T05:15:26.055Z,0
2017-11-03T05:16:27.792Z,0
2017-11-03T05:17:29.510Z,0
2017-11-03T05:18:31.232Z,0
2017-11-03T05:19:32.925Z,0
2017-11-03T05:20:34.642Z,0
2017-11-03T05:21:36.352Z,0
2017-11-03T05:22:38.080Z,0
2017-11-03T05:23:39.779Z,0
2017-11-03T05:24:41.523Z,0
2017-11-03T05:25:43.243Z,0
2017-11-03T05:26:44.987Z,0
2017-11-03T05:27:46.789Z,0
2017-11-03T05:28:48.496Z,0
2017-11-03T05:29:50.212Z,0
2017-11-03T05:30:51.910Z,0
2017-11-03T05:31:53.606Z,0
2017-11-03T05:32:55.320Z,0
2017-11-03T05:33:57.037Z,0
2017-11-03T05:34:58.754Z,0
2017-11-03T05:36:00.457Z,0
2017-11-03T05:37:02.204Z,0
2017-11-03T05:38:03.924Z,0
2017-11-03T05:39:05.647Z,0
2017-11-03T05:40:07.347Z,0
2017-11-03T05:41:09.067Z,0
2017-11-03T05:42:10.784Z,0
2017-11-03T05:43:12.500Z,0
2017-11-03T05:44:14.228Z,0
2017-11-03T05:45:15.957Z,0
2017-11-03T05:46:17.675Z,0
2017-11-03T05:47:19.399Z,0
2017-11-03T05:48:21.112Z,0
2017-11-03T05:49:22.847Z,0
2017-11-03T05:50:24.572Z,0
2017-11-03T05:51:26.304Z,0
2017-11-03T05:52:28.024Z,0
2017-11-03T05:53:29.725Z,0
2017-11-03T05:54:31.412Z,0
2017-11-03T05:55:33.140Z,0
2017-11-03T05:56:34.859Z,0
2017-11-03T05:57:36.603Z,0
2017-11-03T05:58:38.314Z,0
2017-11-03T05:59:40.013Z,0
2017-11-03T06:00:41.769Z,0
2017-11-03T06:01:43.480Z,0
2017-11-03T06:02:45.206Z,0
2017-11-03T06:03:46.921Z,0
2017-11-03T06:04:48.636Z,0
2017-11-03T06:05:50.363Z,0
2017-11-03T06:06:52.072Z,0
2017-11-03T06:07:53.788Z,0
2017-11-03T06:08:55.539Z,0
2017-11-03T06:09:57.282Z,0
2017-11-03T06:10:59.016Z,0
2017-11-03T06:12:00.742Z,0
2017-11-03T06:13:02.633Z,0
2017-11-03T06:14:04.372Z,0
2017-11-03T06:15:06.114Z,0
2017-11-03T06:16:07.885Z,0
2017-11-03T06:17:09.639Z,0
2017-11-03T06:18:11.356Z,0
2017-11-03T06:19:13.077Z,0
2017-11-03T06:20:14.828Z,0
2017-11-03T06:21:16.599Z,0
2017-11-03T06:22:18.368Z,0
2017-11-03T06:23:20.169Z,0
2017-11-03T06:24:21.955Z,0
2017-11-03T06:25:23.660Z,0
2017-11-03T06:26:25.422Z,0
2017-11-03T06:27:27.133Z,0
2017-11-03T06:28:28.843Z,0
2017-11-03T06:29:30.666Z,0
2017-11-03T06:30:32.397Z,0
2017-11-03T06:31:34.155Z,0
2017-11-03T06:32:35.902Z,0
2017-11-03T06:33:37.606Z,0
2017-11-03T06:34:39.376Z,0
2017-11-03T06:35:41.107Z,0
2017-11-03T06:36:42.980Z,0
2017-11-03T06:37:44.846Z,0
2017-11-03T06:38:46.576Z,0
2017-11-03T06:39:48.308Z,0
2017-11-03T06:40:50.029Z,0
2017-11-03T06:41:51.780Z,0
2017-11-03T06:42:53.493Z,0
2017-11-03T06:43:55.216Z,4
2017-11-03T06:44:56.949Z,4
2017-11-03T06:45:58.657Z,0
2017-11-03T06:47:00.382Z,4
2017-11-03T06:48:02.149Z,4
2017-11-03T06:49:03.839Z,4
2017-11-03T06:50:05.601Z,8
2017-11-03T06:51:07.331Z,8
2017-11-03T06:52:09.069Z,12
2017-11-03T06:53:10.814Z,16
2017-11-03T06:54:12.550Z,20
2017-11-03T06:55:14.261Z,24
2017-11-03T06:56:16.340Z,28
2017-11-03T06:57:18.047Z,32
2017-11-03T06:58:19.792Z,36
2017-11-03T06:59:21.541Z,48
2017-11-03T07:00:23.259Z,52
2017-11-03T07:01:24.997Z,68
2017-11-03T07:02:26.803Z,76
2017-11-03T07:03:28.573Z,88
2017-11-03T07:04:30.287Z,104
2017-11-03T07:05:31.995Z,120
2017-11-03T07:06:33.767Z,132
2017-11-03T07:07:35.520Z,148
2017-11-03T07:08:37.300Z,164
2017-11-03T07:09:39.011Z,180
2017-11-03T07:10:40.754Z,200
2017-11-03T07:11:42.477Z,220
2017-11-03T07:12:44.248Z,244
2017-11-03T07:13:45.984Z,272
2017-11-03T07:14:47.735Z,300
2017-11-03T07:15:49.479Z,324
2017-11-03T07:16:51.216Z,348
2017-11-03T07:17:52.926Z,380
2017-11-03T07:18:54.702Z,416
2017-11-03T07:19:56.411Z,464
2017-11-03T07:20:58.124Z,512
2017-11-03T07:21:59.866Z,556
2017-11-03T07:23:01.629Z,584
2017-11-03T07:24:03.415Z,640
2017-11-03T07:25:05.201Z,672
2017-11-03T07:26:07.082Z,680
2017-11-03T07:27:08.815Z,692
2017-11-03T07:28:10.519Z,704
2017-11-03T07:29:12.226Z,708
2017-11-03T07:30:13.955Z,704
2017-11-03T07:31:15.675Z,716
2017-11-03T07:32:17.432Z,716
2017-11-03T07:33:19.151Z,712
2017-11-03T07:34:20.893Z,692
2017-11-03T07:35:22.595Z,668
2017-11-03T07:36:24.342Z,660
2017-11-03T07:37:26.077Z,668
2017-11-03T07:38:27.782Z,696
2017-11-03T07:39:29.491Z,716
2017-11-03T07:40:31.289Z,780
2017-11-03T07:41:33.013Z,804
2017-11-03T07:42:34.716Z,816
2017-11-03T07:43:36.427Z,792
2017-11-03T07:44:38.147Z,696
2017-11-03T07:45:39.878Z,664
2017-11-03T07:46:41.622Z,656
2017-11-03T07:47:43.333Z,664
2017-11-03T07:48:45.044Z,640
2017-11-03T07:49:46.773Z,624
2017-11-03T07:50:48.504Z,616
2017-11-03T07:51:50.255Z,604
2017-11-03T07:52:52.981Z,596
2017-11-03T07:53:54.743Z,540
2017-11-03T07:54:56.454Z,504
2017-11-03T07:55:58.163Z,512
2017-11-03T07:56:59.894Z,528
2017-11-03T07:58:01.625Z,568
2017-11-03T07:59:03.399Z,584
2017-11-03T08:00:05.100Z,632
2017-11-03T08:01:06.851Z,716
2017-11-03T08:02:08.558Z,844
2017-11-03T08:03:10.281Z,980
2017-11-03T08:04:11.989Z,1108
2017-11-03T08:05:14.105Z,1232
2017-11-03T08:06:15.854Z,1352
2017-11-03T08:07:17.577Z,1412
2017-11-03T08:08:19.289Z,1460
2017-11-03T08:09:21.031Z,1504
2017-11-03T08:10:22.755Z,1580
2017-11-03T08:11:24.547Z,1692
2017-11-03T08:12:26.284Z,1752
2017-11-03T08:13:28.036Z,1776
2017-11-03T08:14:29.741Z,1752
2017-11-03T08:15:31.495Z,1680
2017-11-03T08:16:33.220Z,1692
2017-11-03T08:17:34.944Z,1896
2017-11-03T08:18:36.689Z,2072
2017-11-03T08:19:38.417Z,2200
2017-11-03T08:20:40.139Z,2316
2017-11-03T08:21:41.881Z,2348
2017-11-03T08:22:43.655Z,2640
2017-11-03T08:23:45.364Z,2900
2017-11-03T08:24:47.083Z,2956
2017-11-03T08:25:48.823Z,2872
2017-11-03T08:26:50.555Z,2880
2017-11-03T08:27:52.266Z,2920
2017-11-03T08:28:53.995Z,2848
2017-11-03T08:29:55.802Z,2828
2017-11-03T08:30:57.517Z,2900
2017-11-03T08:31:59.326Z,3024
2017-11-03T08:33:01.138Z,3132
2017-11-03T08:34:02.898Z,3184
2017-11-03T08:35:04.739Z,3488
2017-11-03T08:36:06.456Z,3568
2017-11-03T08:37:08.258Z,3484
2017-11-03T08:38:09.974Z,3500
2017-11-03T08:39:11.755Z,3564
2017-11-03T08:40:13.529Z,3892
2017-11-03T08:41:15.250Z,4536
2017-11-03T08:42:16.965Z,4656
2017-11-03T08:43:18.693Z,4668
2017-11-03T08:44:20.439Z,4876
2017-11-03T08:45:22.214Z,4948
2017-11-03T08:46:23.958Z,4964
2017-11-03T08:47:25.704Z,4980
2017-11-03T08:48:27.586Z,4764
2017-11-03T08:49:29.337Z,4792
2017-11-03T08:50:31.243Z,4572
2017-11-03T08:51:33.052Z,4496
2017-11-03T08:52:34.775Z,4472
2017-11-03T08:53:36.514Z,4576
2017-11-03T08:54:38.291Z,4708
2017-11-03T08:55:40.006Z,4756
2017-11-03T08:56:41.757Z,4656
2017-11-03T08:57:43.513Z,4604
2017-11-03T08:58:45.248Z,4588
2017-11-03T08:59:47.005Z,4544
2017-11-03T09:00:48.749Z,4532
2017-11-03T09:01:50.506Z,4628
2017-11-03T09:02:52.227Z,4700
2017-11-03T09:03:53.965Z,4716
2017-11-03T09:04:55.685Z,4716
2017-11-03T09:05:57.409Z,4716
2017-11-03T09:06:59.121Z,4708
2017-11-03T09:08:00.895Z,4656
2017-11-03T09:09:02.636Z,4616
2017-11-03T09:10:04.434Z,4716
2017-11-03T09:11:06.154Z,4904
2017-11-03T09:12:07.894Z,5028
2017-11-03T09:13:09.619Z,5008
2017-11-03T09:14:11.352Z,5036
2017-11-03T09:15:13.096Z,5108
2017-11-03T09:16:14.832Z,5132
2017-11-03T09:17:16.571Z,5156
2017-11-03T09:18:18.407Z,5160
2017-11-03T09:19:20.128Z,5164
2017-11-03T09:20:21.850Z,5108
2017-11-03T09:21:23.619Z,5008
2017-11-03T09:22:25.327Z,4912
2017-11-03T09:23:27.067Z,4796
2017-11-03T09:24:28.786Z,4624
2017-11-03T09:25:30.536Z,4428
2017-11-03T09:26:32.413Z,4312
2017-11-03T09:27:34.154Z,4268
2017-11-03T09:28:35.898Z,4228
2017-11-03T09:29:37.647Z,4188
2017-11-03T09:30:39.375Z,4148
2017-11-03T09:31:41.103Z,4108
2017-11-03T09:32:42.820Z,4028
2017-11-03T09:33:44.567Z,3948
2017-11-03T09:34:46.296Z,3828
2017-11-03T09:35:48.040Z,3688
2017-11-03T09:36:49.742Z,3612
2017-11-03T09:37:51.492Z,3580
2017-11-03T09:38:53.211Z,3536
2017-11-03T09:39:54.957Z,3484
2017-11-03T09:40:56.705Z,3480
2017-11-03T09:41:58.460Z,3440
2017-11-03T09:43:00.198Z,3372
2017-11-03T09:44:01.972Z,3304
2017-11-03T09:45:03.725Z,3348
2017-11-03T09:46:05.447Z,3488
2017-11-03T09:47:07.176Z,3640
2017-11-03T09:48:08.923Z,3776
2017-11-03T09:49:10.644Z,3932
2017-11-03T09:50:12.364Z,4116
2017-11-03T09:51:14.072Z,4296
2017-11-03T09:52:15.806Z,4492
2017-11-03T09:53:17.530Z,4696
2017-11-03T09:54:19.238Z,4868
2017-11-03T09:55:20.994Z,5060
2017-11-03T09:56:22.706Z,5352
2017-11-03T09:57:24.461Z,5712
2017-11-03T09:58:26.209Z,6204
2017-11-03T09:59:27.947Z,6996
2017-11-03T10:00:29.761Z,8464
2017-11-03T10:01:31.485Z,8264
2017-11-03T10:02:33.229Z,8108
2017-11-03T10:03:34.945Z,8392
2017-11-03T10:04:36.667Z,8864
2017-11-03T10:05:40.218Z,10736
2017-11-03T10:06:41.942Z,11096
2017-11-03T10:07:43.682Z,11372
2017-11-03T10:08:45.425Z,10884
2017-11-03T10:09:47.133Z,9984
2017-11-03T10:10:48.861Z,9976
2017-11-03T10:11:50.617Z,9020
2017-11-03T10:12:52.333Z,8860
2017-11-03T10:13:54.081Z,8452
2017-11-03T10:14:55.822Z,7308
2017-11-03T10:15:57.564Z,7200
2017-11-03T10:16:59.320Z,6936
2017-11-03T10:18:01.051Z,6664
2017-11-03T10:19:02.787Z,6496
2017-11-03T10:20:04.519Z,6312
2017-11-03T10:21:06.276Z,6188
2017-11-03T10:22:07.962Z,6016
2017-11-03T10:23:09.703Z,5960
2017-11-03T10:24:11.433Z,5984
2017-11-03T10:25:13.161Z,6088
2017-11-03T10:26:14.880Z,6252
2017-11-03T10:27:16.627Z,6400
2017-11-03T10:28:18.813Z,6384
2017-11-03T10:29:20.496Z,6368
2017-11-03T10:30:22.313Z,6612
2017-11-03T10:31:24.101Z,6924
2017-11-03T10:32:25.835Z,6928
2017-11-03T10:33:27.538Z,6740
2017-11-03T10:34:29.281Z,6612
2017-11-03T10:35:31.071Z,6544
2017-11-03T10:36:32.776Z,6520
2017-11-03T10:37:34.504Z,6444
2017-11-03T10:38:36.242Z,6372
2017-11-03T10:39:38.003Z,6272
2017-11-03T10:40:39.757Z,6160
2017-11-03T10:41:41.504Z,6016
2017-11-03T10:42:43.209Z,5800
2017-11-03T10:43:44.938Z,5588
2017-11-03T10:44:46.675Z,5412
2017-11-03T10:45:48.414Z,5232
2017-11-03T10:46:50.153Z,5052
2017-11-03T10:47:51.874Z,4844
2017-11-03T10:48:53.640Z,4620
2017-11-03T10:49:55.434Z,4340
2017-11-03T10:50:57.145Z,4308
2017-11-03T10:51:58.856Z,4296
2017-11-03T10:53:00.592Z,4420
2017-11-03T10:54:02.337Z,4440
2017-11-03T10:55:04.034Z,4456
2017-11-03T10:56:05.837Z,4340
2017-11-03T10:57:07.645Z,4212
2017-11-03T10:58:09.411Z,4008
2017-11-03T10:59:11.133Z,4172
2017-11-03T11:00:12.862Z,4160
2017-11-03T11:01:15.545Z,4168
2017-11-03T11:02:17.257Z,4140
2017-11-03T11:03:19.017Z,4120
2017-11-03T11:04:20.766Z,4024
2017-11-03T11:05:22.575Z,3916
2017-11-03T11:06:24.298Z,3696
2017-11-03T11:07:26.010Z,3364
2017-11-03T11:08:27.765Z,3248
2017-11-03T11:09:29.522Z,3324
2017-11-03T11:10:31.262Z,3484
2017-11-03T11:11:33.004Z,3628
2017-11-03T11:12:34.745Z,3672
2017-11-03T11:13:36.506Z,3704
2017-11-03T11:14:38.245Z,3736
2017-11-03T11:15:39.955Z,3652
2017-11-03T11:16:41.666Z,3648
2017-11-03T11:17:43.412Z,3608
2017-11-03T11:18:45.138Z,3420
2017-11-03T11:19:46.885Z,2840
2017-11-03T11:20:48.628Z,3020
2017-11-03T11:21:50.381Z,2944
2017-11-03T11:22:52.104Z,2752
2017-11-03T11:23:53.848Z,3112
2017-11-03T11:24:55.585Z,4036
2017-11-03T11:25:57.304Z,4936
2017-11-03T11:26:59.058Z,6488
2017-11-03T11:28:01.645Z,7840
2017-11-03T11:29:03.355Z,7200
2017-11-03T11:30:05.086Z,7428
2017-11-03T11:31:06.935Z,8200
2017-11-03T11:32:08.665Z,8760
2017-11-03T11:33:10.432Z,9804
2017-11-03T11:34:12.185Z,10172
2017-11-03T11:35:13.956Z,9400
2017-11-03T11:36:15.684Z,8724
2017-11-03T11:37:17.429Z,9136
2017-11-03T11:38:19.209Z,9776
2017-11-03T11:39:20.956Z,10948
2017-11-03T11:40:22.753Z,12288
2017-11-03T11:41:24.480Z,16032
2017-11-03T11:42:26.205Z,12240
2017-11-03T11:43:27.931Z,13156
2017-11-03T11:44:29.676Z,19392
2017-11-03T11:45:31.414Z,18624
2017-11-03T11:46:33.213Z,16472
2017-11-03T11:47:34.944Z,18464
2017-11-03T11:48:36.693Z,14740
2017-11-03T11:49:38.443Z,11628
2017-11-03T11:50:40.215Z,11888
2017-11-03T11:51:41.939Z,11540
2017-11-03T11:52:43.644Z,10772
2017-11-03T11:53:45.372Z,10244
2017-11-03T11:54:47.094Z,8864
2017-11-03T11:55:48.828Z,7732
2017-11-03T11:56:50.569Z,7600
2017-11-03T11:57:52.305Z,6988
2017-11-03T11:58:54.046Z,6528
2017-11-03T11:59:55.837Z,6060
2017-11-03T12:00:57.562Z,5484
2017-11-03T12:01:59.436Z,4904
2017-11-03T12:03:01.148Z,4632
2017-11-03T12:04:02.863Z,4540
2017-11-03T12:05:04.588Z,4504
2017-11-03T12:06:06.359Z,4488
2017-11-03T12:07:08.105Z,4676
2017-11-03T12:08:09.825Z,5028
2017-11-03T12:09:11.588Z,5368
2017-11-03T12:10:13.323Z,5600
2017-11-03T12:11:15.041Z,5528
2017-11-03T12:12:16.755Z,5452
2017-11-03T12:13:18.490Z,5612
2017-11-03T12:14:20.211Z,5520
2017-11-03T12:15:21.922Z,5640
2017-11-03T12:16:23.664Z,5520
2017-11-03T12:17:25.388Z,5508
2017-11-03T12:18:27.155Z,5212
2017-11-03T12:19:28.938Z,5020
2017-11-03T12:20:30.741Z,4948
2017-11-03T12:21:32.473Z,4880
2017-11-03T12:22:34.181Z,4712
2017-11-03T12:23:35.908Z,4872
2017-11-03T12:24:37.650Z,4928
2017-11-03T12:25:39.390Z,4824
2017-11-03T12:26:41.811Z,4368
2017-11-03T12:27:43.542Z,3752
2017-11-03T12:28:45.255Z,3464
2017-11-03T12:29:47.004Z,3316
2017-11-03T12:30:48.815Z,2960
2017-11-03T12:31:50.531Z,2664
2017-11-03T12:32:52.251Z,2556
2017-11-03T12:33:54.016Z,2556
2017-11-03T12:34:55.777Z,2632
2017-11-03T12:35:57.498Z,2732
2017-11-03T12:36:59.232Z,2864
2017-11-03T12:38:00.957Z,3076
2017-11-03T12:39:02.702Z,3156
2017-11-03T12:40:04.428Z,3268
2017-11-03T12:41:06.175Z,3508
2017-11-03T12:42:07.899Z,3740
2017-11-03T12:43:09.627Z,3964
2017-11-03T12:44:11.401Z,4080
2017-11-03T12:45:13.117Z,4192
2017-11-03T12:46:14.855Z,4296
2017-11-03T12:47:16.672Z,4312
2017-11-03T12:48:18.402Z,4168
2017-11-03T12:49:20.221Z,3916
2017-11-03T12:50:22.019Z,3736
2017-11-03T12:51:23.761Z,3476
2017-11-03T12:52:25.476Z,3216
2017-11-03T12:53:27.253Z,3476
2017-11-03T12:54:29.029Z,3564
2017-11-03T12:55:30.771Z,3480
2017-11-03T12:56:32.494Z,3196
2017-11-03T12:57:34.229Z,3100
2017-11-03T12:58:35.967Z,3376
2017-11-03T12:59:37.758Z,3484
2017-11-03T13:00:39.478Z,3732
2017-11-03T13:01:41.199Z,3856
2017-11-03T13:02:42.925Z,3856
2017-11-03T13:03:44.653Z,3520
2017-11-03T13:04:46.347Z,3436
2017-11-03T13:05:48.087Z,3316
2017-11-03T13:06:49.818Z,3060
2017-11-03T13:07:51.550Z,2864
2017-11-03T13:08:53.280Z,2736
2017-11-03T13:09:55.046Z,2760
2017-11-03T13:10:56.765Z,2748
2017-11-03T13:11:58.673Z,2496
2017-11-03T13:13:00.430Z,2116
2017-11-03T13:14:02.344Z,1480
2017-11-03T13:15:04.133Z,1116
2017-11-03T13:16:05.899Z,784
2017-11-03T13:17:07.717Z,648
2017-11-03T13:18:09.814Z,636
2017-11-03T13:19:11.528Z,580
2017-11-03T13:20:13.236Z,504
2017-11-03T13:21:14.990Z,564
2017-11-03T13:22:16.710Z,632
2017-11-03T13:23:18.606Z,644
2017-11-03T13:24:20.332Z,724
2017-11-03T13:25:22.211Z,844
2017-11-03T13:26:23.921Z,952
2017-11-03T13:27:25.668Z,1100
2017-11-03T13:28:27.397Z,1304
2017-11-03T13:29:29.126Z,1360
2017-11-03T13:30:30.844Z,1252
2017-11-03T13:31:32.550Z,1232
2017-11-03T13:32:34.294Z,1292
2017-11-03T13:33:36.025Z,1304
2017-11-03T13:34:37.748Z,1216
2017-11-03T13:35:39.529Z,1336
2017-11-03T13:36:41.378Z,1508
2017-11-03T13:37:43.190Z,1704
2017-11-03T13:38:44.919Z,1924
2017-11-03T13:39:46.631Z,2336
2017-11-03T13:40:48.541Z,2692
2017-11-03T13:41:50.245Z,2932
2017-11-03T13:42:51.977Z,3424
2017-11-03T13:43:53.691Z,3804
2017-11-03T13:44:55.482Z,4012
2017-11-03T13:45:57.203Z,4032
2017-11-03T13:46:59.875Z,3976
2017-11-03T13:48:01.657Z,4032
2017-11-03T13:49:03.378Z,4064
2017-11-03T13:50:05.102Z,4068
2017-11-03T13:51:06.818Z,4056
2017-11-03T13:52:08.540Z,4068
2017-11-03T13:53:10.286Z,4116
2017-11-03T13:54:11.996Z,4172
2017-11-03T13:55:13.733Z,4220
2017-11-03T13:56:15.454Z,4228
2017-11-03T13:57:17.167Z,4208
2017-11-03T13:58:18.894Z,4168
2017-11-03T13:59:20.650Z,4100
2017-11-03T14:00:22.390Z,3988
2017-11-03T14:01:24.129Z,3900
2017-11-03T14:02:25.947Z,3780
2017-11-03T14:03:27.682Z,3504
2017-11-03T14:04:29.416Z,2912
2017-11-03T14:05:31.192Z,2240
2017-11-03T14:06:32.901Z,1756
2017-11-03T14:07:34.612Z,1672
2017-11-03T14:08:36.375Z,1744
2017-11-03T14:09:38.119Z,1692
2017-11-03T14:10:39.842Z,1696
2017-11-03T14:11:41.594Z,1764
2017-11-03T14:12:43.327Z,1868
2017-11-03T14:13:45.047Z,1736
2017-11-03T14:14:46.760Z,1600
2017-11-03T14:15:48.491Z,1524
2017-11-03T14:16:50.219Z,1352
2017-11-03T14:17:51.948Z,1396
2017-11-03T14:18:53.676Z,1420
2017-11-03T14:19:55.387Z,1276
2017-11-03T14:20:57.117Z,1072
2017-11-03T14:21:58.828Z,840
2017-11-03T14:23:00.549Z,716
2017-11-03T14:24:02.278Z,676
2017-11-03T14:25:04.030Z,612
2017-11-03T14:26:05.754Z,588